地図

経路データ

SID SEASON NUMBER BASIN SUBBASIN NAME ISO_TIME NATURE LAT LON WMO_WIND WMO_PRES WMO_AGENCY TRACK_TYPE DIST2LAND LANDFALL IFLAG USA_AGENCY USA_ATCF_ID USA_LAT USA_LON USA_RECORD USA_STATUS USA_WIND USA_PRES USA_SSHS USA_R34_NE USA_R34_SE USA_R34_SW USA_R34_NW USA_R50_NE USA_R50_SE USA_R50_SW USA_R50_NW USA_R64_NE USA_R64_SE USA_R64_SW USA_R64_NW USA_POCI USA_ROCI USA_RMW USA_EYE TOKYO_LAT TOKYO_LON TOKYO_GRADE TOKYO_WIND TOKYO_PRES TOKYO_R50_DIR TOKYO_R50_LONG TOKYO_R50_SHORT TOKYO_R30_DIR TOKYO_R30_LONG TOKYO_R30_SHORT TOKYO_LAND CMA_LAT CMA_LON CMA_CAT CMA_WIND CMA_PRES HKO_LAT HKO_LON HKO_CAT HKO_WIND HKO_PRES NEWDELHI_LAT NEWDELHI_LON NEWDELHI_GRADE NEWDELHI_WIND NEWDELHI_PRES NEWDELHI_CI NEWDELHI_DP NEWDELHI_POCI REUNION_LAT REUNION_LON REUNION_TYPE REUNION_WIND REUNION_PRES REUNION_TNUM REUNION_CI REUNION_RMW REUNION_R34_NE REUNION_R34_SE REUNION_R34_SW REUNION_R34_NW REUNION_R50_NE REUNION_R50_SE REUNION_R50_SW REUNION_R50_NW REUNION_R64_NE REUNION_R64_SE REUNION_R64_SW REUNION_R64_NW BOM_LAT BOM_LON BOM_TYPE BOM_WIND BOM_PRES BOM_TNUM BOM_CI BOM_RMW BOM_R34_NE BOM_R34_SE BOM_R34_SW BOM_R34_NW BOM_R50_NE BOM_R50_SE BOM_R50_SW BOM_R50_NW BOM_R64_NE BOM_R64_SE BOM_R64_SW BOM_R64_NW BOM_ROCI BOM_POCI BOM_EYE BOM_POS_METHOD BOM_PRES_METHOD NADI_LAT NADI_LON NADI_CAT NADI_WIND NADI_PRES WELLINGTON_LAT WELLINGTON_LON WELLINGTON_WIND WELLINGTON_PRES DS824_LAT DS824_LON DS824_STAGE DS824_WIND DS824_PRES TD9636_LAT TD9636_LON TD9636_STAGE TD9636_WIND TD9636_PRES TD9635_LAT TD9635_LON TD9635_WIND TD9635_PRES TD9635_ROCI NEUMANN_LAT NEUMANN_LON NEUMANN_CLASS NEUMANN_WIND NEUMANN_PRES MLC_LAT MLC_LON MLC_CLASS MLC_WIND MLC_PRES USA_GUST BOM_GUST BOM_GUST_PER REUNION_GUST REUNION_GUST_PER USA_SEAHGT USA_SEARAD_NE USA_SEARAD_SE USA_SEARAD_SW USA_SEARAD_NW STORM_SPEED STORM_DIR
1999236N12306 1999 70 NA NA EMILY 1999-08-24 06:00:00 TS 11.5000 -53.6000 30 1007 hurdat_atl main 630 629 O_____________ hurdat_atl AL061999 11.5000 -53.6000 TD 30 1007 -1 2 270
1999236N12306 1999 70 NA NA EMILY 1999-08-24 09:00:00 TS 11.5000 -53.7075 main 629 628 P_____________ AL061999 11.5000 -53.7075 TD 32 1006 -1 2 270
1999236N12306 1999 70 NA NA EMILY 1999-08-24 12:00:00 TS 11.5000 -53.8000 35 1006 hurdat_atl main 628 628 O_____________ hurdat_atl AL061999 11.5000 -53.8000 TS 35 1006 0 2 275
1999236N12306 1999 70 NA NA EMILY 1999-08-24 15:00:00 TS 11.5125 -53.8650 main 628 628 P_____________ AL061999 11.5125 -53.8650 TS 40 1005 0 1 317
1999236N12306 1999 70 NA NA EMILY 1999-08-24 18:00:00 TS 11.6000 -53.9000 45 1004 hurdat_atl main 639 639 O_____________ hurdat_atl AL061999 11.6000 -53.9000 TS 45 1004 0 3 0
1999236N12306 1999 70 NA NA EMILY 1999-08-24 21:00:00 TS 11.8200 -53.8851 main 661 661 P_____________ AL061999 11.8200 -53.8851 TS 45 1004 0 5 2
1999236N12306 1999 70 NA NA EMILY 1999-08-25 00:00:00 TS 12.1000 -53.9000 45 1005 hurdat_atl main 695 695 O_____________ hurdat_atl AL061999 12.1000 -53.9000 TS 45 1005 0 6 348
1999236N12306 1999 70 NA NA EMILY 1999-08-25 03:00:00 TS 12.3725 -54.0050 main 728 728 P_____________ AL061999 12.3725 -54.0050 TS 42 1005 0 6 330
1999236N12306 1999 70 NA NA EMILY 1999-08-25 06:00:00 TS 12.6000 -54.2000 40 1006 hurdat_atl main 735 720 O_____________ hurdat_atl AL061999 12.6000 -54.2000 TS 40 1006 0 6 305
1999236N12306 1999 70 NA NA EMILY 1999-08-25 09:00:00 TS 12.7076 -54.4926 main 720 706 P_____________ AL061999 12.7076 -54.4926 TS 40 1006 0 6 289
1999236N12306 1999 70 NA NA EMILY 1999-08-25 12:00:00 TS 12.8000 -54.8000 40 1007 hurdat_atl main 707 698 O_____________ hurdat_atl AL061999 12.8000 -54.8000 TS 40 1007 0 6 298
1999236N12306 1999 70 NA NA EMILY 1999-08-25 15:00:00 TS 12.9699 -55.0076 main 702 686 P_____________ AL061999 12.9699 -55.0076 TS 40 1006 0 6 316
1999236N12306 1999 70 NA NA EMILY 1999-08-25 18:00:00 TS 13.2000 -55.2000 40 1005 hurdat_atl main 690 680 O_____________ hurdat_atl AL061999 13.2000 -55.2000 TS 40 1005 0 7 321
1999236N12306 1999 70 NA NA EMILY 1999-08-25 21:00:00 TS 13.4925 -55.4425 main 685 671 P_____________ AL061999 13.4925 -55.4425 TS 40 1005 0 8 321
1999236N12306 1999 70 NA NA EMILY 1999-08-26 00:00:00 TS 13.8000 -55.7000 40 1005 hurdat_atl main 672 666 O_____________ hurdat_atl AL061999 13.8000 -55.7000 TS 40 1005 0 7 318
1999236N12306 1999 70 NA NA EMILY 1999-08-26 03:00:00 TS 14.0425 -55.9576 main 657 654 P_____________ AL061999 14.0425 -55.9576 TS 40 1006 0 7 316
1999236N12306 1999 70 NA NA EMILY 1999-08-26 06:00:00 TS 14.3000 -56.2000 40 1007 hurdat_atl main 659 656 O_____________ hurdat_atl AL061999 14.3000 -56.2000 TS 40 1007 0 7 323
1999236N12306 1999 70 NA NA EMILY 1999-08-26 09:00:00 TS 14.6275 -56.4076 main 663 662 P_____________ AL061999 14.6275 -56.4076 TS 40 1008 0 8 331
1999236N12306 1999 70 NA NA EMILY 1999-08-26 12:00:00 TS 15.0000 -56.6000 40 1010 hurdat_atl main 677 677 O_____________ hurdat_atl AL061999 15.0000 -56.6000 TS 40 1010 0 8 331
1999236N12306 1999 70 NA NA EMILY 1999-08-26 15:00:00 TS 15.3625 -56.8225 main 695 688 P_____________ AL061999 15.3625 -56.8225 TS 37 1010 0 9 334
1999236N12306 1999 70 NA NA EMILY 1999-08-26 18:00:00 TS 15.8000 -57.0000 35 1010 hurdat_atl main 716 716 O_____________ hurdat_atl AL061999 15.8000 -57.0000 TS 35 1010 0 11 346
1999236N12306 1999 70 NA NA EMILY 1999-08-26 21:00:00 TS 16.3850 -57.0875 main 764 764 P_____________ AL061999 16.3850 -57.0875 TS 35 1010 0 12 355
1999236N12306 1999 70 NA NA EMILY 1999-08-27 00:00:00 TS 17.0000 -57.1000 35 1010 hurdat_atl main 821 821 O_____________ hurdat_atl AL061999 17.0000 -57.1000 TS 35 1010 0 11 2
1999236N12306 1999 70 NA NA EMILY 1999-08-27 03:00:00 TS 17.5150 -57.0577 main 869 869 P_____________ AL061999 17.5150 -57.0577 TS 35 1010 0 10 6
1999236N12306 1999 70 NA NA EMILY 1999-08-27 06:00:00 TS 18.0000 -57.0000 35 1011 hurdat_atl main 909 907 O_____________ hurdat_atl AL061999 18.0000 -57.0000 TS 35 1011 0 10 3
1999236N12306 1999 70 NA NA EMILY 1999-08-27 09:00:00 TS 18.5000 -56.9924 main 907 907 P_____________ AL061999 18.5000 -56.9924 TS 35 1010 0 10 1
1999236N12306 1999 70 NA NA EMILY 1999-08-27 12:00:00 TS 19.0000 -57.0000 35 1009 hurdat_atl main 908 908 O_____________ hurdat_atl AL061999 19.0000 -57.0000 TS 35 1009 0 10 358
1999236N12306 1999 70 NA NA EMILY 1999-08-27 15:00:00 TS 19.4925 -57.0297 main 912 912 P_____________ AL061999 19.4925 -57.0297 TS 37 1008 0 10 1
1999236N12306 1999 70 NA NA EMILY 1999-08-27 18:00:00 TS 20.0000 -57.0000 40 1007 hurdat_atl main 920 920 O_____________ hurdat_atl AL061999 20.0000 -57.0000 TS 40 1007 0 11 12
1999236N12306 1999 70 NA NA EMILY 1999-08-27 21:00:00 TS 20.5276 -56.7931 main 951 951 P_____________ AL061999 20.5276 -56.7931 TS 40 1007 0 12 19
1999236N12306 1999 70 NA NA EMILY 1999-08-28 00:00:00 TS 21.1000 -56.6000 40 1007 hurdat_atl main 988 988 O_____________ hurdat_atl AL061999 21.1000 -56.6000 TS 40 1007 0 12 8
1999236N12306 1999 70 NA NA EMILY 1999-08-28 03:00:00 TS 21.7275 -56.6195 main 1009 1009 P_____________ AL061999 21.7275 -56.6195 TS 37 1008 0 13 356
1999236N12306 1999 70 NA NA EMILY 1999-08-28 06:00:00 TS 22.4000 -56.7000 35 1009 hurdat_atl main 1029 1029 O_____________ hurdat_atl AL061999 22.4000 -56.7000 TS 35 1009 0 14 356
1999236N12306 1999 70 NA NA EMILY 1999-08-28 09:00:00 TS 23.0950 -56.7229 main 1063 1063 P_____________ AL061999 23.0950 -56.7229 TS 32 1009 -1 14 0
1999236N12306 1999 70 NA NA EMILY 1999-08-28 12:00:00 TS 23.8000 -56.7000 30 1009 hurdat_atl main 1102 O_____________ hurdat_atl AL061999 23.8000 -56.7000 TD 30 1009 -1 14 2

IBTrACS Databaseについて

本データベースは、米国NOAAが公開する1842年以降の世界の熱帯低気圧のベストトラックデータアーカイブInternational Best Track Archive for Climate Stewardship (IBTrACS)を、ウェブで閲覧しやすい形式に変換したものです。

最終更新日:2021-10-25